createdAt,value
2017-10-01T00:01:56.340Z,47.70
2017-10-01T00:04:23.782Z,48.00
2017-10-01T00:06:51.224Z,47.70
2017-10-01T00:09:18.635Z,47.30
2017-10-01T00:11:46.164Z,47.00
2017-10-01T00:14:13.587Z,46.50
2017-10-01T00:16:41.021Z,45.90
2017-10-01T00:19:08.533Z,45.80
2017-10-01T00:21:35.988Z,45.30
2017-10-01T00:24:03.452Z,45.10
2017-10-01T00:26:30.883Z,45.20
2017-10-01T00:28:58.364Z,45.30
2017-10-01T00:31:25.796Z,45.00
2017-10-01T00:33:53.229Z,44.90
2017-10-01T00:36:20.654Z,44.10
2017-10-01T00:38:48.088Z,43.80
2017-10-01T00:41:15.611Z,43.70
2017-10-01T00:43:43.100Z,43.70
2017-10-01T00:46:10.545Z,43.70
2017-10-01T00:48:37.954Z,43.20
2017-10-01T00:51:05.463Z,43.20
2017-10-01T00:53:32.904Z,43.40
2017-10-01T00:56:00.376Z,43.50
2017-10-01T00:58:27.809Z,43.50
2017-10-01T01:00:55.227Z,43.80
2017-10-01T01:03:22.736Z,44.10
2017-10-01T01:05:50.200Z,44.40
2017-10-01T01:08:17.646Z,44.60
2017-10-01T01:10:45.058Z,44.50
2017-10-01T01:13:12.575Z,44.80
2017-10-01T01:15:40.011Z,45.40
2017-10-01T01:18:07.473Z,45.00
2017-10-01T01:20:34.902Z,45.20
2017-10-01T01:23:02.400Z,45.10
2017-10-01T01:25:29.843Z,45.30
2017-10-01T01:27:57.308Z,45.70
2017-10-01T01:30:24.775Z,45.40
2017-10-01T01:32:52.196Z,45.40
2017-10-01T01:35:19.627Z,45.00
2017-10-01T01:37:47.133Z,45.00
2017-10-01T01:40:14.572Z,45.00
2017-10-01T01:42:42.060Z,44.70
2017-10-01T01:45:09.591Z,44.60
2017-10-01T01:47:37.016Z,44.50
2017-10-01T01:50:04.443Z,44.40
2017-10-01T01:52:32.168Z,44.60
2017-10-01T01:54:59.602Z,44.80
2017-10-01T01:57:27.023Z,44.50
2017-10-01T01:59:54.549Z,44.10
2017-10-01T02:02:21.988Z,44.10
2017-10-01T02:04:49.411Z,43.90
2017-10-01T02:07:16.848Z,44.00
2017-10-01T02:09:44.374Z,44.00
2017-10-01T02:12:11.822Z,44.00
2017-10-01T02:14:39.283Z,43.60
2017-10-01T02:17:06.714Z,44.00
2017-10-01T02:19:34.195Z,43.90
2017-10-01T02:22:01.629Z,44.20
2017-10-01T02:24:29.048Z,44.00
2017-10-01T02:26:56.488Z,43.80
2017-10-01T02:29:24.019Z,43.70
2017-10-01T02:31:51.474Z,44.00
2017-10-01T02:34:18.929Z,45.40
2017-10-01T02:36:46.370Z,46.00
2017-10-01T02:39:13.879Z,45.70
2017-10-01T02:41:41.322Z,45.30
2017-10-01T02:44:08.755Z,44.60
2017-10-01T02:46:36.224Z,44.90
2017-10-01T02:49:03.666Z,45.00
2017-10-01T02:51:31.082Z,45.20
2017-10-01T02:53:58.512Z,45.50
2017-10-01T02:56:26.709Z,43.80
2017-10-01T02:58:54.140Z,43.80
2017-10-01T03:01:21.572Z,43.60
2017-10-01T03:03:49.016Z,43.30
2017-10-01T03:06:16.476Z,42.80
2017-10-01T03:08:43.914Z,43.20
2017-10-01T03:11:11.340Z,45.00
2017-10-01T03:13:38.762Z,45.80
2017-10-01T03:16:06.304Z,45.80
2017-10-01T03:18:33.759Z,46.30
2017-10-01T03:21:01.193Z,46.00
2017-10-01T03:23:28.618Z,45.90
2017-10-01T03:25:56.044Z,44.90
2017-10-01T03:28:23.592Z,43.20
2017-10-01T03:30:51.041Z,43.10
2017-10-01T03:33:18.454Z,42.70
2017-10-01T03:35:45.883Z,43.10
2017-10-01T03:38:13.412Z,44.30
2017-10-01T03:40:40.843Z,43.60
2017-10-01T03:43:08.272Z,44.50
2017-10-01T03:45:35.776Z,45.00
2017-10-01T03:48:03.195Z,44.60
2017-10-01T03:50:30.619Z,44.20
2017-10-01T03:52:58.042Z,44.30
2017-10-01T03:55:25.603Z,44.20
2017-10-01T03:57:53.057Z,44.30
2017-10-01T04:00:20.481Z,44.90
2017-10-01T04:02:47.970Z,44.40
2017-10-01T04:05:15.387Z,44.20
2017-10-01T04:07:42.811Z,43.90
2017-10-01T04:10:10.245Z,43.20
2017-10-01T04:12:37.680Z,42.50
2017-10-01T04:15:05.260Z,43.50
2017-10-01T04:17:32.716Z,44.50
2017-10-01T04:20:00.159Z,45.10
2017-10-01T04:22:27.621Z,45.80
2017-10-01T04:24:55.047Z,45.80
2017-10-01T04:27:22.536Z,45.00
2017-10-01T04:29:49.955Z,45.00
2017-10-01T04:32:17.396Z,43.90
2017-10-01T04:34:44.820Z,44.20
2017-10-01T04:37:12.364Z,44.30
2017-10-01T04:39:40.003Z,45.30
2017-10-01T04:42:07.572Z,45.30
2017-10-01T04:44:35.012Z,44.50
2017-10-01T04:47:02.490Z,44.60
2017-10-01T04:49:29.928Z,44.50
2017-10-01T04:51:57.347Z,44.80
2017-10-01T04:54:24.771Z,45.50
2017-10-01T04:56:52.204Z,46.50
2017-10-01T04:59:19.776Z,47.30
2017-10-01T05:01:47.204Z,47.40
2017-10-01T05:04:14.632Z,45.90
2017-10-01T05:06:42.141Z,45.50
2017-10-01T05:09:09.573Z,44.30
2017-10-01T05:11:37.001Z,44.10
2017-10-01T05:14:04.841Z,43.20
2017-10-01T05:16:32.280Z,44.00
2017-10-01T05:18:59.708Z,44.40
2017-10-01T05:21:27.192Z,45.00
2017-10-01T05:23:54.607Z,45.20
2017-10-01T05:26:22.092Z,45.20
2017-10-01T05:28:49.506Z,45.20
2017-10-01T05:31:17.011Z,45.20
2017-10-01T05:33:44.434Z,44.20
2017-10-01T05:36:11.874Z,44.60
2017-10-01T05:38:39.283Z,44.90
2017-10-01T05:41:06.764Z,45.20
2017-10-01T05:43:34.201Z,46.30
2017-10-01T05:46:01.624Z,45.70
2017-10-01T05:48:29.140Z,45.10
2017-10-01T05:50:56.655Z,44.20
2017-10-01T05:53:24.091Z,43.60
2017-10-01T05:55:51.585Z,44.50
2017-10-01T05:58:19.003Z,45.90
2017-10-01T06:00:46.480Z,46.10
2017-10-01T06:03:13.948Z,45.90
2017-10-01T06:05:41.366Z,45.90
2017-10-01T06:08:08.848Z,45.90
2017-10-01T06:10:36.272Z,45.90
2017-10-01T06:13:03.772Z,45.90
2017-10-01T06:15:31.189Z,46.50
2017-10-01T06:17:58.628Z,46.90
2017-10-01T06:20:26.034Z,47.50
2017-10-01T06:22:53.591Z,47.70
2017-10-01T06:25:21.052Z,46.80
2017-10-01T06:27:48.484Z,46.70
2017-10-01T06:30:15.922Z,46.70
2017-10-01T06:32:43.441Z,46.60
2017-10-01T06:35:10.876Z,47.70
2017-10-01T06:37:38.307Z,47.90
2017-10-01T06:40:05.728Z,47.10
2017-10-01T06:42:33.156Z,47.20
2017-10-01T06:45:00.689Z,47.60
2017-10-01T06:47:28.112Z,47.50
2017-10-01T06:49:55.602Z,47.60
2017-10-01T06:52:23.024Z,47.10
2017-10-01T06:54:50.460Z,48.00
2017-10-01T06:57:17.873Z,46.90
2017-10-01T06:59:45.383Z,47.40
2017-10-01T07:02:12.795Z,47.10
2017-10-01T07:04:40.228Z,47.30
2017-10-01T07:07:07.707Z,47.00
2017-10-01T07:09:35.180Z,48.50
2017-10-01T07:12:02.733Z,48.80
2017-10-01T07:14:30.168Z,48.60
2017-10-01T07:16:57.625Z,48.60
2017-10-01T07:19:25.042Z,48.00
2017-10-01T07:21:52.475Z,47.50
2017-10-01T07:24:19.902Z,47.40
2017-10-01T07:26:47.340Z,48.00
2017-10-01T07:29:14.923Z,47.70
2017-10-01T07:31:42.674Z,46.70
2017-10-01T07:34:10.103Z,47.00
2017-10-01T07:36:37.573Z,47.10
2017-10-01T07:39:04.987Z,46.50
2017-10-01T07:41:32.418Z,48.90
2017-10-01T07:43:59.951Z,48.70
2017-10-01T07:46:27.387Z,50.50
2017-10-01T07:48:54.802Z,51.00
2017-10-01T07:51:22.249Z,49.50
2017-10-01T09:25:59.331Z,36.20
2017-10-01T09:28:26.771Z,38.30
2017-10-01T09:30:54.316Z,40.30
2017-10-01T09:33:22.075Z,38.00
2017-10-01T09:35:49.559Z,38.90
2017-10-01T09:38:17.000Z,35.90
2017-10-01T09:40:44.435Z,38.00
2017-10-01T09:43:11.872Z,35.40
2017-10-01T09:45:39.351Z,35.90
2017-10-01T09:48:06.796Z,36.20
2017-10-01T09:50:34.236Z,36.20
2017-10-01T09:53:01.671Z,38.60
2017-10-01T09:55:29.092Z,39.10
2017-10-01T09:57:56.531Z,34.20
2017-10-01T10:00:23.953Z,33.20
2017-10-01T10:02:52.147Z,33.70
2017-10-01T10:05:19.571Z,33.70
2017-10-01T10:07:47.008Z,35.50
2017-10-01T10:10:14.530Z,34.00
2017-10-01T10:12:41.966Z,38.20
2017-10-01T10:15:09.390Z,32.80
2017-10-01T10:17:36.819Z,32.00
2017-10-01T10:20:04.244Z,34.70
2017-10-01T10:22:31.741Z,34.60
2017-10-01T10:24:59.192Z,34.90
2017-10-01T10:27:26.619Z,32.90
2017-10-01T10:29:54.075Z,31.50
2017-10-01T10:32:21.509Z,30.50
2017-10-01T10:34:49.008Z,31.50
2017-10-01T10:37:16.544Z,32.50
2017-10-01T10:39:43.971Z,30.50
2017-10-01T10:42:11.398Z,31.20
2017-10-01T10:44:38.921Z,32.90
2017-10-01T10:47:06.340Z,31.40
2017-10-01T10:49:33.793Z,30.10
2017-10-01T10:52:01.208Z,30.00
2017-10-01T10:54:28.744Z,30.20
2017-10-01T10:56:56.196Z,33.50
2017-10-01T10:59:23.616Z,30.40
2017-10-01T11:01:51.053Z,28.90
2017-10-01T11:04:18.571Z,28.40
2017-10-01T11:06:46.008Z,26.10
2017-10-01T11:09:13.435Z,25.80
2017-10-01T11:11:40.846Z,27.10
2017-10-01T11:14:08.392Z,25.90
2017-10-01T11:16:36.161Z,25.80
2017-10-01T11:19:03.584Z,25.90
2017-10-01T11:21:31.067Z,26.00
2017-10-01T11:23:58.491Z,26.60
2017-10-01T11:26:25.984Z,27.80
2017-10-01T11:28:53.443Z,22.80
2017-10-01T11:31:20.871Z,22.50
2017-10-01T11:33:48.363Z,22.90
2017-10-01T11:36:15.800Z,22.50
2017-10-01T11:38:43.215Z,21.40
2017-10-01T11:41:10.740Z,21.40
2017-10-01T11:43:38.194Z,18.80
2017-10-01T11:46:05.627Z,19.80
2017-10-01T11:48:33.047Z,20.30
2017-10-01T11:51:00.499Z,20.30
2017-10-01T11:53:27.921Z,19.80
2017-10-01T11:55:55.360Z,17.10
2017-10-01T11:58:22.911Z,17.20
2017-10-01T12:00:50.367Z,15.90
2017-10-01T12:03:17.792Z,18.00
2017-10-01T12:05:45.477Z,17.80
2017-10-01T12:08:13.045Z,21.60
2017-10-01T12:10:40.472Z,17.30
2017-10-01T12:13:07.896Z,19.90
2017-10-01T12:15:35.343Z,18.00
2017-10-01T12:18:02.764Z,16.20
2017-10-01T12:20:30.329Z,16.50
2017-10-01T12:22:58.017Z,14.60
2017-10-01T12:25:25.464Z,15.00
2017-10-01T12:27:53.008Z,12.60
2017-10-01T12:30:20.432Z,11.50
2017-10-01T12:32:47.856Z,14.70
2017-10-01T12:35:15.289Z,13.40
2017-10-01T12:37:42.736Z,12.30
2017-10-01T12:40:10.200Z,13.70
2017-10-01T12:42:37.642Z,15.70
2017-10-01T12:45:05.102Z,10.90
2017-10-01T12:47:32.522Z,12.40
2017-10-01T12:50:00.117Z,13.30
2017-10-01T12:52:27.544Z,14.70
2017-10-01T12:54:54.964Z,14.80
2017-10-01T12:57:22.402Z,12.80
2017-10-01T12:59:49.815Z,11.10
2017-10-01T13:02:17.257Z,9.00
2017-10-01T13:04:44.843Z,9.10
2017-10-01T13:07:12.276Z,8.70
2017-10-01T13:09:39.696Z,8.60
2017-10-01T13:12:07.220Z,9.40
2017-10-01T13:14:34.648Z,6.10
2017-10-01T13:17:02.139Z,8.70
2017-10-01T13:19:29.564Z,3.90
2017-10-01T13:21:57.046Z,5.20
2017-10-01T13:24:24.465Z,5.00
2017-10-01T13:26:51.879Z,3.40
2017-10-01T13:29:19.308Z,4.50
2017-10-01T13:31:46.780Z,3.10
2017-10-01T13:34:14.329Z,5.40
2017-10-01T13:36:41.798Z,4.70
2017-10-01T13:39:09.200Z,4.50
2017-10-01T13:41:36.623Z,4.10
2017-10-01T13:44:04.144Z,2.80
2017-10-01T13:46:31.563Z,4.30
2017-10-01T13:48:58.983Z,4.30
2017-10-01T13:51:26.408Z,3.30
2017-10-01T13:53:54.891Z,4.70
2017-10-01T13:56:22.309Z,3.50
2017-10-01T13:58:49.731Z,4.90
2017-10-01T14:01:17.263Z,3.30
2017-10-01T14:03:44.680Z,2.80
2017-10-01T14:06:12.189Z,2.80
2017-10-01T14:08:39.612Z,2.20
2017-10-01T14:11:07.031Z,5.30
2017-10-01T14:13:34.468Z,3.30
2017-10-01T14:16:01.889Z,4.40
2017-10-01T14:18:29.380Z,2.60
2017-10-01T14:20:56.920Z,2.40
2017-10-01T14:23:24.348Z,3.80
2017-10-01T14:25:51.755Z,6.20
2017-10-01T14:28:20.209Z,3.90
2017-10-01T14:30:53.308Z,3.90
2017-10-01T14:33:20.983Z,6.50
2017-10-01T14:35:48.576Z,6.20
2017-10-01T14:38:16.988Z,7.40
2017-10-01T14:40:44.399Z,7.40
2017-10-01T14:43:12.616Z,6.70
2017-10-01T14:45:40.025Z,6.60
2017-10-01T14:48:07.452Z,6.80
2017-10-01T14:50:34.894Z,6.60
2017-10-01T14:53:02.311Z,6.50
2017-10-01T14:55:29.763Z,6.40
2017-10-01T14:57:57.968Z,5.00
2017-10-01T15:00:25.384Z,4.90
2017-10-01T15:02:52.835Z,7.10
2017-10-01T15:05:20.268Z,8.00
2017-10-01T15:07:48.450Z,7.30
2017-10-01T15:10:16.051Z,6.70
2017-10-01T15:12:43.509Z,7.80
2017-10-01T15:15:11.004Z,6.50
2017-10-01T15:17:38.445Z,7.90
2017-10-01T15:20:05.914Z,7.90
2017-10-01T15:22:33.452Z,8.40
2017-10-01T15:25:00.875Z,8.20
2017-10-01T15:27:28.295Z,7.40
2017-10-01T15:29:55.824Z,7.40
2017-10-01T15:32:23.261Z,7.30
2017-10-01T15:34:50.692Z,7.80
2017-10-01T15:37:18.104Z,7.80
2017-10-01T15:39:45.584Z,7.90
2017-10-01T15:42:13.023Z,8.50
2017-10-01T15:44:40.473Z,8.50
2017-10-01T15:47:07.926Z,9.70
2017-10-01T15:49:35.469Z,10.10
2017-10-01T15:52:02.882Z,9.90
2017-10-01T15:54:30.308Z,10.30
2017-10-01T15:56:57.759Z,10.60
2017-10-01T15:59:25.216Z,11.10
2017-10-01T16:01:52.756Z,11.40
2017-10-01T16:04:20.221Z,10.80
2017-10-01T16:06:47.645Z,10.90
2017-10-01T16:09:15.124Z,10.70
2017-10-01T16:11:42.555Z,10.70
2017-10-01T16:14:10.004Z,10.90
2017-10-01T16:16:37.444Z,11.50
2017-10-01T16:19:04.860Z,11.40
2017-10-01T16:21:32.305Z,11.10
2017-10-01T16:23:59.735Z,12.50
2017-10-01T16:26:27.260Z,12.30
2017-10-01T16:28:54.686Z,12.40
2017-10-01T16:31:22.171Z,11.90
2017-10-01T16:33:49.612Z,12.30
2017-10-01T16:36:17.139Z,12.70
2017-10-01T16:38:44.596Z,13.50
2017-10-01T16:41:12.057Z,13.30
2017-10-01T16:43:39.478Z,13.40
2017-10-01T16:46:06.907Z,14.10
2017-10-01T16:48:34.328Z,14.30
2017-10-01T16:51:01.880Z,14.20
2017-10-01T16:53:29.292Z,14.50
2017-10-01T16:55:56.792Z,14.70
2017-10-01T16:58:24.752Z,15.00
2017-10-01T17:00:52.320Z,14.90
2017-10-01T17:03:19.747Z,15.20
2017-10-01T17:05:47.239Z,15.40
2017-10-01T17:08:14.694Z,15.70
2017-10-01T17:10:42.154Z,16.00
2017-10-01T17:13:09.580Z,16.20
2017-10-01T17:15:37.055Z,16.30
2017-10-01T17:18:04.502Z,16.70
2017-10-01T17:20:32.015Z,16.90
2017-10-01T17:22:59.738Z,17.40
2017-10-01T17:25:27.160Z,17.90
2017-10-01T17:27:54.644Z,17.90
2017-10-01T17:30:22.110Z,18.20
2017-10-01T17:32:49.846Z,18.50
2017-10-01T17:35:17.348Z,18.70
2017-10-01T17:37:44.782Z,19.00
2017-10-01T17:40:12.202Z,19.30
2017-10-01T17:42:39.697Z,19.50
2017-10-01T17:45:07.319Z,19.40
2017-10-01T17:47:35.526Z,19.50
2017-10-01T17:50:03.168Z,19.40
2017-10-01T17:52:30.683Z,19.50
2017-10-01T17:54:58.210Z,19.70
2017-10-01T17:57:25.643Z,20.10
2017-10-01T17:59:53.120Z,20.20
2017-10-01T18:02:20.571Z,20.70
2017-10-01T18:04:48.026Z,21.20
2017-10-01T18:07:15.452Z,21.30
2017-10-01T18:09:42.872Z,21.30
2017-10-01T18:12:10.342Z,21.20
2017-10-01T18:14:37.852Z,21.10
2017-10-01T18:17:06.195Z,21.40
2017-10-01T18:19:33.688Z,21.80
2017-10-01T18:22:01.109Z,21.90
2017-10-01T18:24:28.536Z,22.30
2017-10-01T18:26:55.960Z,22.40
2017-10-01T18:29:23.509Z,22.90
2017-10-01T18:31:50.927Z,22.70
2017-10-01T18:34:18.350Z,23.10
2017-10-01T18:36:45.783Z,23.20
2017-10-01T18:45:00.394Z,23.70
2017-10-01T18:47:27.791Z,23.70
2017-10-01T18:49:55.228Z,24.00
2017-10-01T18:52:22.695Z,24.00
2017-10-01T18:54:51.127Z,24.50
2017-10-01T18:57:18.671Z,24.50
2017-10-01T18:59:46.087Z,24.80
2017-10-01T19:02:13.585Z,25.00
2017-10-01T19:04:41.095Z,25.20
2017-10-01T19:07:09.432Z,24.70
2017-10-01T19:22:32.513Z,21.90
2017-10-01T19:25:00.029Z,23.10
2017-10-01T19:27:27.437Z,23.80
2017-10-01T19:29:54.871Z,24.40
2017-10-01T19:32:22.347Z,24.70
2017-10-01T19:34:49.849Z,24.70
2017-10-01T19:37:17.292Z,24.50
2017-10-01T19:39:44.730Z,24.60
2017-10-01T19:42:12.142Z,24.70
2017-10-01T19:44:39.565Z,24.70
2017-10-01T19:47:07.036Z,25.40
2017-10-01T19:49:34.484Z,24.70
2017-10-01T19:52:01.926Z,25.10
2017-10-01T19:54:29.396Z,25.50
2017-10-01T19:56:56.919Z,25.80
2017-10-01T19:59:24.336Z,25.90
2017-10-01T20:01:51.767Z,26.00
2017-10-01T20:04:19.316Z,25.90
2017-10-01T20:06:46.771Z,26.00
2017-10-01T20:09:14.195Z,26.10
2017-10-01T20:11:41.612Z,26.20
2017-10-01T20:14:09.139Z,26.60
2017-10-01T20:16:36.569Z,26.50
2017-10-01T20:19:03.996Z,26.50
2017-10-01T20:21:32.430Z,27.20
2017-10-01T20:23:59.888Z,27.00
2017-10-01T20:26:27.317Z,27.60
2017-10-01T20:28:54.771Z,27.80
2017-10-01T20:31:22.179Z,27.80
2017-10-01T20:33:49.628Z,27.90
2017-10-01T20:36:17.168Z,28.30
2017-10-01T20:38:44.595Z,28.60
2017-10-01T20:41:12.078Z,28.50
2017-10-01T20:43:39.530Z,28.50
2017-10-01T20:46:06.952Z,28.90
2017-10-01T20:48:34.451Z,28.90
2017-10-01T20:51:01.871Z,29.10
2017-10-01T20:53:29.307Z,28.90
2017-10-01T20:55:56.828Z,28.90
2017-10-01T20:58:24.247Z,29.00
2017-10-01T21:00:51.711Z,29.70
2017-10-01T21:03:19.175Z,30.00
2017-10-01T21:05:46.648Z,29.60
2017-10-01T21:08:14.274Z,29.50
2017-10-01T21:10:41.870Z,29.60
2017-10-01T21:13:09.296Z,29.40
2017-10-01T21:15:36.727Z,29.50
2017-10-01T21:18:04.240Z,29.50
2017-10-01T21:20:31.876Z,29.60
2017-10-01T21:22:59.384Z,29.60
2017-10-01T21:25:26.913Z,29.40
2017-10-01T21:27:54.546Z,29.30
2017-10-01T21:30:21.976Z,29.40
2017-10-01T21:32:49.484Z,29.20
2017-10-01T21:35:16.960Z,29.90
2017-10-01T21:37:44.405Z,29.30
2017-10-01T21:40:12.146Z,29.50
2017-10-01T21:42:39.719Z,29.00
2017-10-01T21:45:07.156Z,29.30
2017-10-01T21:47:34.579Z,29.40
2017-10-01T21:50:02.007Z,29.70
2017-10-01T21:52:29.443Z,29.90
2017-10-01T21:54:56.989Z,30.00
2017-10-01T21:57:24.456Z,30.30
2017-10-01T21:59:51.888Z,30.50
2017-10-01T22:02:19.299Z,30.70
2017-10-01T22:04:46.819Z,30.70
2017-10-01T22:07:14.275Z,30.70
2017-10-01T22:09:42.007Z,30.70
2017-10-01T22:12:09.502Z,30.30
2017-10-01T22:14:36.956Z,30.80
2017-10-01T22:17:04.412Z,30.40
2017-10-01T22:19:31.867Z,30.70
2017-10-01T22:21:59.316Z,30.70
2017-10-01T22:24:26.745Z,31.10
2017-10-01T22:26:54.231Z,31.60
2017-10-01T22:29:21.659Z,31.20
2017-10-01T22:31:49.187Z,31.70
2017-10-01T22:34:16.615Z,32.00
2017-10-01T22:36:44.064Z,31.60
2017-10-01T22:39:11.706Z,31.60
2017-10-01T22:41:39.196Z,31.90
2017-10-01T22:44:06.632Z,32.20
2017-10-01T22:46:34.204Z,32.10
2017-10-01T22:49:01.641Z,32.00
2017-10-01T22:51:29.065Z,32.50
2017-10-01T22:53:56.559Z,32.10
2017-10-01T22:56:23.984Z,32.60
2017-10-01T22:58:51.434Z,33.60
2017-10-01T23:01:18.851Z,32.80
2017-10-01T23:03:46.394Z,33.00
2017-10-01T23:06:13.847Z,33.80
2017-10-01T23:08:41.298Z,34.00
2017-10-01T23:11:08.711Z,34.00
2017-10-01T23:13:36.163Z,34.30
2017-10-01T23:16:03.666Z,34.10
2017-10-01T23:18:31.299Z,34.00
2017-10-01T23:20:58.760Z,34.80
2017-10-01T23:23:26.339Z,34.80
2017-10-01T23:25:53.796Z,34.50
2017-10-01T23:28:21.224Z,34.80
2017-10-01T23:30:48.703Z,34.70
2017-10-01T23:33:16.168Z,34.80
2017-10-01T23:35:43.615Z,35.20
2017-10-01T23:38:11.081Z,35.30
2017-10-01T23:40:38.513Z,35.80
2017-10-01T23:43:05.989Z,36.10
2017-10-01T23:45:33.452Z,36.40
2017-10-01T23:48:01.075Z,36.60
2017-10-01T23:50:28.666Z,36.60
2017-10-01T23:52:56.085Z,36.40
2017-10-01T23:55:23.524Z,36.60
2017-10-01T23:57:50.939Z,36.50
